Time;durP1;ratioP1;P1;durP2;ratioP2;P2;SDS_P1;SDS_P2;PMS_P1;PMS_P2;Temp;Humidity;BMP_temperature;BMP_pressure;BME280_temperature;BME280_humidity;BME280_pressure;Samples;Min_cycle;Max_cycle;Signal;HPM_P1;HPM_P2
2023/08/28 00:01:57;;;;;;;7.53;4.20;;;;;;;15.38;72.50;101092.31;5007051;28;20025;-68
2023/08/28 00:04:22;;;;;;;5.63;3.78;;;;;;;15.34;73.29;101104.09;5007906;28;20573;-68
2023/08/28 00:06:48;;;;;;;4.25;3.83;;;;;;;15.34;72.68;101094.31;5013061;28;20057;-68
2023/08/28 00:09:13;;;;;;;4.40;4.00;;;;;;;15.40;72.06;101087.78;5010689;28;20264;-68
2023/08/28 00:11:38;;;;;;;6.68;3.83;;;;;;;15.41;72.33;101094.81;5008335;28;20026;-67
2023/08/28 00:14:04;;;;;;;5.80;4.72;;;;;;;15.39;72.71;101088.69;5019248;28;20068;-67
2023/08/28 00:16:29;;;;;;;5.28;4.50;;;;;;;15.36;72.49;101092.41;5012282;28;20024;-68
2023/08/28 00:18:54;;;;;;;4.70;4.20;;;;;;;15.37;72.24;101090.59;5015694;28;20248;-67
2023/08/28 00:21:20;;;;;;;4.80;4.40;;;;;;;15.36;71.93;101091.56;5004313;28;20048;-68
2023/08/28 00:23:45;;;;;;;5.32;4.82;;;;;;;15.26;72.47;101092.06;5012874;28;20039;-68
2023/08/28 00:26:11;;;;;;;6.82;4.68;;;;;;;15.29;73.18;101080.38;5002818;28;20124;-68
2023/08/28 00:28:36;;;;;;;4.80;4.28;;;;;;;15.26;72.37;101076.09;5007528;28;20080;-68
2023/08/28 00:31:03;;;;;;;5.45;4.15;;;;;;;15.25;72.77;101076.19;5010001;28;20026;-68
2023/08/28 00:33:29;;;;;;;4.65;4.03;;;;;;;15.25;72.35;101076.19;5011881;28;20541;-68
2023/08/28 00:35:54;;;;;;;4.20;3.80;;;;;;;15.25;72.36;101074.38;5016100;28;20117;-68
2023/08/28 00:38:19;;;;;;;5.32;4.82;;;;;;;15.18;72.95;101074.78;5009413;28;20080;-68
2023/08/28 00:40:44;;;;;;;6.22;4.18;;;;;;;15.13;73.17;101069.72;5012642;28;20485;-68
2023/08/28 00:43:10;;;;;;;4.60;4.20;;;;;;;15.09;72.93;101069.97;5009513;28;20036;-68
2023/08/28 00:45:42;;;;;;;4.60;4.20;;;;;;;15.10;74.47;101075.19;5006613;28;20052;-68
2023/08/28 00:48:09;;;;;;;4.40;3.92;;;;;;;15.07;73.21;101063.88;5021925;28;20444;-68
2023/08/28 00:50:34;;;;;;;6.30;3.95;;;;;;;15.04;73.58;101067.56;5013282;28;20060;-68
2023/08/28 00:53:00;;;;;;;5.18;4.47;;;;;;;15.02;72.55;101067.66;5016801;28;20033;-68
2023/08/28 00:55:28;;;;;;;4.70;4.20;;;;;;;14.85;74.48;101072.19;5005943;28;20481;-68
2023/08/28 00:57:53;;;;;;;4.97;4.40;;;;;;;14.73;74.33;101069.22;5015135;28;20049;-68
2023/08/28 01:00:18;;;;;;;4.70;4.25;;;;;;;14.65;73.77;101066.13;5021187;28;20068;-68
2023/08/28 01:02:44;;;;;;;5.22;4.38;;;;;;;14.46;74.52;101062.69;5006042;28;20045;-68
2023/08/28 01:05:10;;;;;;;5.70;4.78;;;;;;;14.44;74.34;101070.75;5010891;28;20123;-68
2023/08/28 01:07:52;;;;;;;5.88;4.60;;;;;;;14.45;74.17;101067.13;5011969;28;20470;-69
2023/08/28 01:10:29;;;;;;;5.80;5.15;;;;;;;14.35;75.03;101065.03;5006992;28;20505;-68
2023/08/28 01:13:21;;;;;;;5.18;4.47;;;;;;;14.27;74.79;101065.47;5004855;28;20377;-68
2023/08/28 01:15:48;;;;;;;5.47;4.97;;;;;;;14.10;75.49;101066.31;5008384;28;20092;-68
2023/08/28 01:18:16;;;;;;;5.80;4.97;;;;;;;13.95;76.28;101075.09;5010256;28;20050;-68
2023/08/28 01:20:42;;;;;;;5.93;4.72;;;;;;;13.86;76.57;101079.06;5010795;28;20488;-68
2023/08/28 01:23:28;;;;;;;5.65;4.85;;;;;;;13.98;75.32;101077.56;5009252;28;20026;-68
2023/08/28 01:25:53;;;;;;;4.90;4.50;;;;;;;14.00;75.59;101065.94;5009097;28;20030;-68
2023/08/28 01:28:20;;;;;;;6.63;4.47;;;;;;;14.11;75.27;101053.88;5014833;28;20045;-68
2023/08/28 01:30:45;;;;;;;7.50;4.78;;;;;;;14.18;74.85;101050.84;5012664;28;20037;-67
2023/08/28 01:33:11;;;;;;;4.85;4.45;;;;;;;14.24;75.03;101050.50;5008512;28;20033;-67
2023/08/28 01:35:36;;;;;;;4.68;4.22;;;;;;;14.31;74.75;101053.69;5006552;28;20087;-67
2023/08/28 01:38:05;;;;;;;5.38;4.88;;;;;;;14.27;77.12;101053.03;5010263;28;20036;-67
2023/08/28 01:40:42;;;;;;;6.60;5.05;;;;;;;14.26;75.32;101061.91;5012726;28;20028;-67
2023/08/28 01:43:10;;;;;;;5.90;4.90;;;;;;;14.33;74.86;101049.19;5004169;28;20060;-67
2023/08/28 01:45:37;;;;;;;6.35;5.30;;;;;;;14.25;75.15;101044.25;5005691;28;20033;-67
2023/08/28 01:48:03;;;;;;;6.35;4.90;;;;;;;14.18;75.65;101042.88;5005475;28;20069;-67
2023/08/28 01:50:29;;;;;;;6.40;5.03;;;;;;;14.11;76.11;101037.94;5011180;28;20127;-67
2023/08/28 01:52:54;;;;;;;7.65;5.63;;;;;;;14.12;75.34;101048.47;5008879;28;20398;-67
2023/08/28 01:55:49;;;;;;;5.63;5.10;;;;;;;14.29;75.70;101047.63;5009094;28;20033;-67
2023/08/28 01:58:15;;;;;;;8.90;5.30;;;;;;;14.14;75.75;101057.25;4985127;28;20036;-67
2023/08/28 02:00:40;;;;;;;7.18;4.82;;;;;;;14.11;75.18;101046.78;5001184;28;20037;-67
2023/08/28 02:03:08;;;;;;;5.40;4.90;;;;;;;14.15;74.86;101048.34;5007195;28;20112;-67
2023/08/28 02:05:33;;;;;;;5.57;4.95;;;;;;;14.16;75.13;101039.41;5013700;28;20482;-68
2023/08/28 02:07:59;;;;;;;7.00;4.93;;;;;;;14.14;75.33;101035.97;5006242;28;20025;-67
2023/08/28 02:10:24;;;;;;;7.88;5.38;;;;;;;14.10;76.54;101029.09;5006044;28;20362;-68
2023/08/28 02:12:50;;;;;;;4.95;4.40;;;;;;;14.03;75.72;101019.72;5005751;28;20038;-68
2023/08/28 02:15:15;;;;;;;6.20;5.07;;;;;;;13.95;75.11;101022.78;5008382;28;20121;-68
2023/08/28 02:17:40;;;;;;;5.88;5.22;;;;;;;13.90;75.41;101021.31;5006022;28;20029;-68
2023/08/28 02:20:06;;;;;;;6.97;5.03;;;;;;;13.87;76.56;101021.44;5008111;28;20513;-68
2023/08/28 02:22:31;;;;;;;7.88;6.13;;;;;;;13.66;77.09;101021.59;5003319;28;20034;-68
2023/08/28 02:24:58;;;;;;;7.07;6.32;;;;;;;13.53;77.81;101025.81;5006756;28;20030;-68
2023/08/28 02:27:24;;;;;;;8.73;6.38;;;;;;;13.39;78.09;101036.25;5007535;28;20551;-68
2023/08/28 02:29:49;;;;;;;7.72;6.75;;;;;;;13.24;78.97;101052.00;5004200;28;20033;-68
2023/08/28 02:32:14;;;;;;;7.90;6.65;;;;;;;13.27;78.84;101040.34;5006234;28;20026;-68
2023/08/28 02:34:39;;;;;;;7.90;6.63;;;;;;;13.32;78.69;101040.13;5003732;28;20021;-68
2023/08/28 02:37:05;;;;;;;8.23;6.43;;;;;;;13.25;78.77;101045.75;5007888;28;20045;-68
2023/08/28 02:39:30;;;;;;;8.93;6.55;;;;;;;13.19;79.08;101042.47;5007658;28;20373;-68
2023/08/28 02:41:56;;;;;;;6.22;5.57;;;;;;;13.30;78.60;101042.00;5003196;28;20022;-68
2023/08/28 02:44:21;;;;;;;7.30;5.50;;;;;;;13.33;77.79;101036.53;5013733;28;20033;-68
2023/08/28 02:46:46;;;;;;;6.40;5.78;;;;;;;13.23;78.54;101042.28;5010250;28;20021;-68
2023/08/28 02:49:12;;;;;;;8.80;5.88;;;;;;;13.22;78.27;101051.19;5016545;28;20112;-68
2023/08/28 02:51:37;;;;;;;7.85;5.53;;;;;;;13.18;78.50;101046.06;4987101;28;20041;-68
2023/08/28 02:54:02;;;;;;;7.88;5.00;;;;;;;13.26;77.75;101050.09;5012040;28;20473;-68
2023/08/28 02:56:36;;;;;;;6.72;4.75;;;;;;;13.39;77.74;101044.22;5013121;28;20026;-68
2023/08/28 02:59:02;;;;;;;6.07;5.43;;;;;;;13.41;76.81;101047.66;5011497;28;20515;-68
2023/08/28 03:01:27;;;;;;;7.28;5.75;;;;;;;13.46;76.51;101048.28;5008739;28;20029;-68
2023/08/28 03:03:52;;;;;;;5.50;4.82;;;;;;;13.59;75.57;101045.88;5007655;28;20084;-68
2023/08/28 03:06:18;;;;;;;7.20;5.15;;;;;;;13.55;76.79;101045.16;5008242;28;20037;-68
2023/08/28 03:08:43;;;;;;;7.72;5.90;;;;;;;13.44;76.96;101040.41;5010565;28;20092;-68
2023/08/28 03:11:08;;;;;;;8.15;5.57;;;;;;;13.44;77.49;101051.03;5005377;28;20017;-68
2023/08/28 03:13:34;;;;;;;7.85;6.25;;;;;;;13.41;77.43;101061.78;5011720;28;20038;-67
2023/08/28 03:15:59;;;;;;;6.82;5.32;;;;;;;13.39;77.33;101068.97;5016757;28;20053;-67
2023/08/28 03:18:25;;;;;;;6.40;5.68;;;;;;;13.43;76.85;101064.34;5014580;28;20033;-68
2023/08/28 03:20:50;;;;;;;6.15;5.55;;;;;;;13.43;76.96;101065.25;5015772;28;20068;-68
2023/08/28 03:23:15;;;;;;;9.63;5.78;;;;;;;13.44;77.28;101069.59;5016379;28;20025;-68
2023/08/28 03:25:41;;;;;;;6.57;5.10;;;;;;;13.45;76.47;101063.34;5016639;28;20036;-68
2023/08/28 03:28:07;;;;;;;8.30;5.70;;;;;;;13.41;76.94;101071.53;5012646;28;20042;-68
2023/08/28 03:30:33;;;;;;;6.63;5.80;;;;;;;13.42;76.66;101060.84;5018713;28;20026;-67
2023/08/28 03:32:59;;;;;;;5.35;4.85;;;;;;;13.45;76.48;101068.66;5011068;28;20038;-68
2023/08/28 03:35:24;;;;;;;7.97;6.60;;;;;;;13.43;77.91;101072.31;5012109;28;20040;-68
2023/08/28 03:37:49;;;;;;;9.85;6.30;;;;;;;13.37;78.15;101073.47;5013300;28;20030;-67
2023/08/28 03:40:14;;;;;;;7.47;6.00;;;;;;;13.34;77.53;101073.66;5016712;28;20041;-68
2023/08/28 03:42:40;;;;;;;9.93;6.68;;;;;;;13.32;77.27;101079.94;5015060;28;20037;-68
2023/08/28 03:45:05;;;;;;;7.95;6.57;;;;;;;13.20;77.50;101087.53;5022226;28;20033;-67
2023/08/28 03:47:31;;;;;;;6.50;5.90;;;;;;;13.11;77.69;101089.78;5017255;28;20297;-68
2023/08/28 03:49:56;;;;;;;6.88;5.85;;;;;;;13.07;77.86;101093.50;5011506;28;20018;-68
2023/08/28 03:52:21;;;;;;;7.63;6.03;;;;;;;13.08;77.80;101097.88;5013501;28;20045;-68
2023/08/28 03:54:46;;;;;;;6.60;5.63;;;;;;;13.03;78.28;101087.47;5016907;28;20057;-67
2023/08/28 03:57:12;;;;;;;7.88;5.97;;;;;;;13.13;77.76;101093.19;5010111;28;20068;-67
2023/08/28 03:59:37;;;;;;;6.53;5.93;;;;;;;13.24;78.17;101099.78;5011041;28;20405;-68
2023/08/28 04:02:03;;;;;;;7.53;6.38;;;;;;;13.25;77.76;101109.47;5011214;28;20463;-68
2023/08/28 04:04:28;;;;;;;8.50;7.57;;;;;;;13.24;79.49;101104.19;5014999;28;20030;-67
2023/08/28 04:06:53;;;;;;;8.20;6.20;;;;;;;13.23;79.01;101111.31;5011644;28;20302;-67
2023/08/28 04:09:20;;;;;;;7.85;6.32;;;;;;;13.21;79.51;101115.81;5013021;28;20017;-67
2023/08/28 04:11:45;;;;;;;9.90;6.38;;;;;;;13.27;79.25;101120.84;5017185;28;20113;-67
2023/08/28 04:14:11;;;;;;;7.70;6.90;;;;;;;13.35;79.42;101109.88;5016235;28;20026;-68
2023/08/28 04:16:36;;;;;;;8.90;7.20;;;;;;;13.42;79.08;101113.09;5010454;28;20068;-68
2023/08/28 04:19:01;;;;;;;12.27;7.55;;;;;;;13.33;80.02;101114.38;5014445;28;20032;-68
2023/08/28 04:21:27;;;;;;;9.48;7.20;;;;;;;13.43;79.55;101112.16;5013874;28;20032;-67
2023/08/28 04:23:52;;;;;;;9.80;7.80;;;;;;;13.24;80.60;101117.47;5011838;28;20095;-67
2023/08/28 04:26:17;;;;;;;8.90;7.13;;;;;;;13.13;81.04;101125.91;5014332;28;20072;-68
2023/08/28 04:28:42;;;;;;;11.68;7.57;;;;;;;13.10;80.72;101112.78;5013922;28;20036;-68
2023/08/28 04:31:09;;;;;;;8.93;7.50;;;;;;;13.13;80.96;101119.75;5014226;28;20495;-68
2023/08/28 04:33:34;;;;;;;9.43;7.43;;;;;;;13.13;81.57;101117.09;5010061;28;20551;-67
2023/08/28 04:35:59;;;;;;;8.75;7.63;;;;;;;13.36;81.09;101111.59;5009593;28;20069;-67
2023/08/28 04:38:25;;;;;;;10.98;8.35;;;;;;;13.42;80.13;101115.75;5014778;28;20018;-68
2023/08/28 04:40:50;;;;;;;9.95;7.38;;;;;;;13.56;79.41;101113.28;5012060;28;20405;-68
2023/08/28 04:43:15;;;;;;;10.05;7.78;;;;;;;13.61;79.19;101119.25;5007660;28;20026;-68
2023/08/28 04:45:40;;;;;;;7.47;6.68;;;;;;;13.69;78.72;101114.44;5008847;28;20069;-69
2023/08/28 04:48:06;;;;;;;9.57;6.25;;;;;;;13.78;78.61;101113.97;5010157;28;20040;-69
2023/08/28 04:50:31;;;;;;;8.80;7.10;;;;;;;13.85;77.99;101111.91;5015140;28;20029;-68
2023/08/28 04:52:56;;;;;;;8.80;7.47;;;;;;;13.89;78.02;101112.59;5013241;28;20029;-69
2023/08/28 04:55:22;;;;;;;9.48;7.53;;;;;;;13.93;77.63;101098.22;5014748;28;20025;-69
2023/08/28 04:57:47;;;;;;;10.38;7.28;;;;;;;13.97;77.52;101100.63;5009486;28;20025;-68
2023/08/28 05:00:13;;;;;;;10.13;7.18;;;;;;;14.02;78.00;101090.63;5015728;28;20096;-68
2023/08/28 05:02:38;;;;;;;13.32;7.47;;;;;;;14.04;76.75;101099.41;5019446;28;20522;-69
2023/08/28 05:05:04;;;;;;;7.13;6.32;;;;;;;13.82;78.40;101093.44;5024394;28;20042;-68
2023/08/28 05:07:29;;;;;;;10.73;7.07;;;;;;;13.80;78.15;101089.97;5016209;28;20164;-69
2023/08/28 05:09:54;;;;;;;8.60;7.65;;;;;;;13.75;78.87;101089.34;5014856;28;20030;-69
2023/08/28 05:12:19;;;;;;;7.93;7.13;;;;;;;13.78;78.98;101082.09;5010980;28;20042;-69
2023/08/28 05:14:45;;;;;;;8.18;7.13;;;;;;;13.82;78.60;101087.25;5011028;28;20033;-68
2023/08/28 05:17:10;;;;;;;9.98;7.20;;;;;;;13.88;79.02;101093.13;5017174;28;20025;-69
2023/08/28 05:19:35;;;;;;;8.18;7.18;;;;;;;13.88;79.15;101095.78;5017719;28;20531;-68
2023/08/28 05:22:00;;;;;;;8.35;7.40;;;;;;;13.90;79.61;101082.44;5010953;28;20032;-68
2023/08/28 05:24:26;;;;;;;8.68;7.55;;;;;;;13.89;80.48;101092.19;5007342;28;20104;-68
2023/08/28 05:26:51;;;;;;;9.15;8.25;;;;;;;14.10;79.34;101084.94;5009161;28;20025;-68
2023/08/28 05:29:16;;;;;;;11.73;7.78;;;;;;;14.11;79.29;101083.13;5008523;28;20469;-68
2023/08/28 05:31:42;;;;;;;9.20;7.60;;;;;;;14.22;79.93;101089.63;5011529;28;20036;-69
2023/08/28 05:34:07;;;;;;;9.80;8.00;;;;;;;14.29;78.95;101088.38;5009512;28;20026;-68
2023/08/28 05:36:32;;;;;;;10.25;8.57;;;;;;;14.41;79.24;101088.66;5013033;28;20401;-68
2023/08/28 05:38:57;;;;;;;11.68;9.23;;;;;;;14.33;80.30;101094.41;5002372;28;20084;-68
2023/08/28 05:41:23;;;;;;;10.82;8.63;;;;;;;14.42;79.95;101080.63;5008272;28;20030;-68
2023/08/28 05:43:48;;;;;;;11.45;9.40;;;;;;;14.49;80.62;101081.19;5010605;28;20036;-68
2023/08/28 05:46:13;;;;;;;12.30;9.18;;;;;;;14.51;81.26;101080.16;5010123;28;20465;-68
2023/08/28 05:48:39;;;;;;;12.63;9.40;;;;;;;14.59;81.62;101081.53;5010149;28;20370;-68
2023/08/28 05:51:04;;;;;;;11.85;9.32;;;;;;;14.60;80.96;101083.28;5009148;28;20029;-68
2023/08/28 05:53:29;;;;;;;13.35;10.52;;;;;;;14.73;81.47;101084.34;5007225;28;20041;-68
2023/08/28 05:55:55;;;;;;;14.60;10.18;;;;;;;14.64;81.63;101088.38;4997728;28;20113;-68
2023/08/28 05:58:20;;;;;;;14.85;10.20;;;;;;;14.65;81.33;101099.88;5003381;28;20018;-68
2023/08/28 06:00:46;;;;;;;12.95;10.38;;;;;;;14.66;81.84;101107.75;5010419;28;20265;-68
2023/08/28 06:03:11;;;;;;;12.25;10.70;;;;;;;14.65;82.38;101100.72;5007374;28;20083;-68
2023/08/28 06:05:38;;;;;;;13.55;9.30;;;;;;;14.72;80.76;101085.28;5008068;28;20057;-68
2023/08/28 06:08:03;;;;;;;15.73;10.40;;;;;;;14.75;81.86;101078.00;5010171;28;20125;-68
2023/08/28 06:10:29;;;;;;;11.00;9.82;;;;;;;14.83;81.30;101088.25;5005721;28;20116;-68
2023/08/28 06:12:54;;;;;;;14.02;11.45;;;;;;;14.87;82.25;101094.25;5004337;28;20030;-68
2023/08/28 06:15:19;;;;;;;14.88;11.63;;;;;;;14.87;82.69;101087.09;5009344;28;20021;-68
2023/08/28 06:17:45;;;;;;;14.77;11.95;;;;;;;14.93;83.33;101088.59;5003984;28;20111;-69
2023/08/28 06:20:11;;;;;;;14.80;12.35;;;;;;;14.83;84.22;101084.69;5006246;28;20481;-68
2023/08/28 06:22:37;;;;;;;12.43;9.93;;;;;;;14.92;83.48;101081.53;5001756;28;20034;-69
2023/08/28 06:25:03;;;;;;;16.38;11.88;;;;;;;14.93;84.11;101092.13;5007849;28;20385;-69
2023/08/28 06:27:29;;;;;;;15.45;11.60;;;;;;;14.99;84.01;101089.13;5006214;28;20038;-69
2023/08/28 06:29:54;;;;;;;13.43;12.00;;;;;;;15.02;85.09;101096.09;5011519;28;20465;-69
2023/08/28 06:32:19;;;;;;;18.05;13.60;;;;;;;15.03;84.74;101095.13;5003945;28;20529;-68
2023/08/28 06:34:45;;;;;;;15.07;13.48;;;;;;;15.06;84.55;101105.59;5006753;28;20034;-68
2023/08/28 06:37:10;;;;;;;16.85;12.95;;;;;;;15.20;84.07;101100.41;5010073;28;20440;-69
2023/08/28 06:39:35;;;;;;;14.32;12.10;;;;;;;15.26;83.70;101093.88;4997760;28;20022;-69
2023/08/28 06:42:01;;;;;;;16.77;12.82;;;;;;;15.32;84.14;101099.72;5001254;28;20026;-69
2023/08/28 06:44:26;;;;;;;15.95;12.82;;;;;;;15.38;83.71;101103.81;5005962;28;20022;-69
2023/08/28 06:46:51;;;;;;;17.83;12.18;;;;;;;15.43;83.68;101107.09;5012603;28;20060;-69
2023/08/28 06:49:16;;;;;;;14.13;12.63;;;;;;;15.48;84.41;101110.38;5006621;28;20503;-68
2023/08/28 06:51:42;;;;;;;14.68;13.07;;;;;;;15.56;83.87;101109.94;5007154;28;20034;-68
2023/08/28 06:54:07;;;;;;;13.57;11.57;;;;;;;15.61;84.08;101121.19;5006607;28;20040;-69
2023/08/28 06:56:32;;;;;;;18.70;12.52;;;;;;;15.71;83.42;101124.22;5012236;28;20025;-69
2023/08/28 06:58:57;;;;;;;14.93;12.82;;;;;;;15.82;83.95;101128.00;5014502;28;20029;-68
2023/08/28 07:01:23;;;;;;;16.80;12.70;;;;;;;16.00;83.12;101126.09;5003369;28;20365;-68
2023/08/28 07:03:48;;;;;;;16.80;13.23;;;;;;;16.20;82.71;101127.56;5002801;28;20044;-69
2023/08/28 07:06:13;;;;;;;13.02;11.20;;;;;;;16.46;81.55;101127.81;5005325;28;20053;-69
2023/08/28 07:08:39;;;;;;;12.90;10.95;;;;;;;16.54;80.40;101126.41;5005253;28;20033;-68
2023/08/28 07:11:04;;;;;;;13.77;11.93;;;;;;;16.70;80.83;101138.84;5010230;28;20103;-69
2023/08/28 07:13:30;;;;;;;13.15;10.88;;;;;;;16.78;80.27;101133.91;5002724;28;20092;-69
2023/08/28 07:15:55;;;;;;;13.43;11.10;;;;;;;16.79;79.76;101135.66;5006699;28;20117;-69
2023/08/28 07:18:21;;;;;;;12.88;11.20;;;;;;;16.89;79.95;101127.94;5010242;28;20041;-69
2023/08/28 07:20:46;;;;;;;13.82;11.18;;;;;;;16.94;79.33;101131.16;5016662;28;20140;-69
2023/08/28 07:23:11;;;;;;;13.50;11.43;;;;;;;17.13;78.74;101133.56;5006156;28;20444;-69
2023/08/28 07:25:38;;;;;;;14.68;11.77;;;;;;;17.33;78.97;101133.13;5009151;28;20165;-69
2023/08/28 07:28:05;;;;;;;13.63;10.63;;;;;;;17.40;77.39;101131.81;5000760;28;20461;-69
2023/08/28 07:30:31;;;;;;;13.27;11.88;;;;;;;17.46;77.64;101127.88;5006606;28;20033;-69
2023/08/28 07:32:56;;;;;;;12.52;11.23;;;;;;;17.47;77.41;101126.91;5006380;28;20120;-69
2023/08/28 07:35:21;;;;;;;12.70;10.98;;;;;;;17.66;77.16;101124.75;5010251;28;20100;-69
2023/08/28 07:37:47;;;;;;;12.23;11.02;;;;;;;17.74;76.71;101111.78;5005519;28;20064;-69
2023/08/28 07:40:12;;;;;;;12.32;10.65;;;;;;;17.85;76.62;101116.41;5006486;28;20034;-69
2023/08/28 07:42:37;;;;;;;13.50;11.43;;;;;;;18.02;77.31;101115.31;5007862;28;20022;-68
2023/08/28 07:45:04;;;;;;;14.05;11.02;;;;;;;18.09;76.28;101122.81;4998893;28;20034;-68
2023/08/28 07:47:29;;;;;;;12.88;10.93;;;;;;;18.46;76.02;101122.13;5001982;28;20097;-68
2023/08/28 07:49:55;;;;;;;13.35;11.07;;;;;;;18.49;73.77;101125.44;5020987;28;20030;-68
2023/08/28 07:52:20;;;;;;;12.55;10.32;;;;;;;19.17;72.73;101121.63;5007235;28;20029;-68
2023/08/28 07:54:46;;;;;;;10.05;9.05;;;;;;;19.66;72.38;101126.09;5013497;28;20025;-68
2023/08/28 07:57:11;;;;;;;9.60;8.70;;;;;;;19.93;68.95;101117.00;5007146;28;20052;-68
2023/08/28 07:59:37;;;;;;;8.75;7.65;;;;;;;20.27;67.98;101121.50;5010918;28;20033;-68
2023/08/28 08:02:04;;;;;;;10.25;9.30;;;;;;;20.68;67.36;101117.47;5018481;28;20157;-69
2023/08/28 08:04:31;;;;;;;10.63;8.70;;;;;;;20.45;65.71;101126.44;5012382;28;20025;-68
2023/08/28 08:06:56;;;;;;;9.75;8.70;;;;;;;20.36;67.00;101117.25;5019628;28;20111;-68
2023/08/28 08:09:22;;;;;;;9.57;8.43;;;;;;;20.43;66.25;101128.41;5013721;28;20033;-68
2023/08/28 08:11:48;;;;;;;9.57;8.65;;;;;;;20.45;66.11;101129.13;5008476;28;20033;-68
2023/08/28 08:14:13;;;;;;;8.50;7.57;;;;;;;20.77;66.25;101122.13;5007670;28;20021;-69
2023/08/28 08:16:38;;;;;;;8.98;7.95;;;;;;;20.93;65.03;101128.97;5016680;28;20131;-71
2023/08/28 08:19:04;;;;;;;9.13;8.00;;;;;;;20.96;65.16;101124.22;5003247;28;20034;-70
2023/08/28 08:21:29;;;;;;;8.43;7.55;;;;;;;20.85;65.84;101122.41;5016805;28;20024;-68
2023/08/28 08:23:55;;;;;;;8.02;7.30;;;;;;;20.84;65.25;101128.75;5010984;28;20030;-69
2023/08/28 08:26:21;;;;;;;8.27;7.15;;;;;;;20.80;65.00;101129.97;5012962;28;20478;-68
2023/08/28 08:28:46;;;;;;;9.45;7.60;;;;;;;20.71;65.14;101122.63;5018856;28;20022;-68
2023/08/28 08:31:11;;;;;;;11.73;8.13;;;;;;;20.69;66.75;101118.34;5009929;28;20105;-68
2023/08/28 08:33:38;;;;;;;9.00;7.97;;;;;;;20.78;66.43;101125.69;5003845;28;20481;-68
2023/08/28 08:36:04;;;;;;;7.28;6.60;;;;;;;20.91;64.09;101128.25;5013935;28;20041;-68
2023/08/28 08:38:29;;;;;;;8.02;6.70;;;;;;;20.90;64.41;101135.47;5014044;28;20038;-69
2023/08/28 08:40:58;;;;;;;7.25;6.40;;;;;;;20.76;64.44;101133.03;5010196;28;20417;-69
2023/08/28 08:43:25;;;;;;;7.70;6.78;;;;;;;20.71;65.35;101136.06;5007647;28;20030;-70
2023/08/28 08:45:58;;;;;;;7.22;6.40;;;;;;;20.61;65.53;101144.00;5003330;28;20026;-70
2023/08/28 08:48:25;;;;;;;7.28;5.82;;;;;;;20.74;64.51;101134.94;5004133;28;20029;-70
2023/08/28 08:50:58;;;;;;;7.47;6.10;;;;;;;20.72;63.81;101142.28;5009566;28;20448;-70
2023/08/28 08:53:34;;;;;;;7.65;6.88;;;;;;;20.77;64.54;101140.09;5006789;28;20026;-69
2023/08/28 08:56:05;;;;;;;6.75;6.15;;;;;;;20.85;65.60;101141.22;5022656;28;20025;-69
2023/08/28 08:58:31;;;;;;;7.25;6.55;;;;;;;21.01;64.21;101143.53;5012265;28;20029;-69
2023/08/28 09:00:58;;;;;;;7.28;6.55;;;;;;;21.26;61.99;101139.72;5019470;28;20069;-69
2023/08/28 09:03:24;;;;;;;10.88;6.93;;;;;;;21.39;62.68;101143.19;5008094;28;20033;-69
2023/08/28 09:05:50;;;;;;;6.97;6.28;;;;;;;22.19;60.72;101136.63;5005388;28;20052;-68
2023/08/28 09:08:16;;;;;;;8.48;7.63;;;;;;;22.77;57.70;101131.66;5006365;28;20029;-68
2023/08/28 09:10:44;;;;;;;7.88;7.18;;;;;;;22.40;60.58;101132.13;5008562;28;20030;-68
2023/08/28 09:13:09;;;;;;;6.45;5.85;;;;;;;22.16;58.04;101134.22;5011524;28;20036;-69
2023/08/28 09:15:34;;;;;;;7.80;5.68;;;;;;;22.17;58.70;101137.75;5011675;28;20116;-69
2023/08/28 09:18:01;;;;;;;8.00;6.85;;;;;;;22.32;58.27;101129.22;5005632;28;20022;-69
2023/08/28 09:20:27;;;;;;;7.95;7.20;;;;;;;22.22;58.46;101131.00;5010770;28;20032;-68
2023/08/28 09:22:54;;;;;;;8.32;7.57;;;;;;;22.12;58.93;101130.91;5003403;28;20072;-70
2023/08/28 09:25:21;;;;;;;8.82;8.02;;;;;;;22.00;59.98;101122.97;4997663;28;20092;-69
2023/08/28 09:27:49;;;;;;;9.70;8.80;;;;;;;21.53;60.64;101125.06;5012864;28;20453;-68
2023/08/28 09:30:38;;;;;;;8.90;8.00;;;;;;;21.57;62.29;101127.38;5003412;28;20081;-69
2023/08/28 09:33:05;;;;;;;9.90;7.03;;;;;;;21.58;59.84;101128.22;5013521;28;20033;-69
2023/08/28 09:35:41;;;;;;;7.90;7.13;;;;;;;21.50;60.63;101133.41;5010440;28;20026;-69
2023/08/28 09:38:07;;;;;;;6.85;6.05;;;;;;;21.50;59.77;101131.56;5002492;28;20533;-69
2023/08/28 09:40:35;;;;;;;6.13;5.50;;;;;;;21.50;60.02;101136.09;5001285;28;20104;-69
2023/08/28 09:43:11;;;;;;;5.70;5.15;;;;;;;21.51;58.13;101135.97;5005767;28;20042;-69
2023/08/28 09:45:37;;;;;;;5.72;5.15;;;;;;;21.33;58.28;101140.16;5010189;28;20030;-68
2023/08/28 09:48:06;;;;;;;5.20;4.72;;;;;;;21.30;59.25;101132.28;5012758;28;20567;-69
2023/08/28 09:50:33;;;;;;;7.00;6.40;;;;;;;21.36;59.52;101135.38;5006766;28;20034;-68
2023/08/28 09:53:12;;;;;;;6.75;5.78;;;;;;;21.40;60.20;101144.03;5010868;28;20470;-68
2023/08/28 09:55:58;;;;;;;6.53;5.97;;;;;;;21.45;60.39;101149.03;5007479;28;20045;-68
2023/08/28 09:58:26;;;;;;;6.47;5.07;;;;;;;21.52;60.94;101150.28;5002047;28;20117;-68
2023/08/28 10:00:53;;;;;;;4.53;3.88;;;;;;;21.59;60.04;101143.38;5012053;28;20034;-68
2023/08/28 10:03:21;;;;;;;3.92;3.63;;;;;;;21.65;59.73;101146.44;5008421;28;20508;-68
2023/08/28 10:05:47;;;;;;;5.53;4.78;;;;;;;21.60;59.61;101142.44;5008019;28;20687;-69
2023/08/28 10:08:15;;;;;;;5.88;5.30;;;;;;;21.64;59.20;101143.91;5007372;28;20036;-69
2023/08/28 10:10:42;;;;;;;5.82;4.30;;;;;;;21.65;59.28;101138.38;5010052;28;21174;-69
2023/08/28 10:13:13;;;;;;;4.95;4.50;;;;;;;21.80;58.69;101147.03;5008832;28;20041;-69
2023/08/28 10:16:15;;;;;;;4.53;4.13;;;;;;;21.94;59.36;101145.03;5005981;28;20032;-69
2023/08/28 10:18:49;;;;;;;5.55;4.45;;;;;;;22.11;58.24;101131.91;5013611;28;20397;-71
2023/08/28 10:21:16;;;;;;;5.40;4.90;;;;;;;22.25;56.89;101136.13;5006697;28;20152;-70
2023/08/28 10:23:43;;;;;;;4.88;4.45;;;;;;;22.24;57.56;101137.09;5008853;28;20546;-68
2023/08/28 10:26:10;;;;;;;4.57;4.10;;;;;;;22.50;57.86;101134.03;5009416;28;20037;-69
2023/08/28 10:28:36;;;;;;;4.72;4.32;;;;;;;22.63;55.62;101134.69;5002040;28;20492;-69
2023/08/28 10:31:05;;;;;;;4.40;3.75;;;;;;;22.75;55.83;101141.69;5003111;28;20112;-68
2023/08/28 10:33:32;;;;;;;5.53;4.50;;;;;;;22.91;55.74;101134.03;5004116;28;20014;-67
2023/08/28 10:35:59;;;;;;;3.90;3.60;;;;;;;23.04;54.40;101138.34;5003485;28;20033;-69
2023/08/28 10:38:26;;;;;;;4.82;3.20;;;;;;;23.28;54.02;101143.41;5004833;28;20030;-69
2023/08/28 10:40:58;;;;;;;4.60;4.20;;;;;;;23.46;52.11;101138.22;5004020;28;20508;-69
2023/08/28 10:43:25;;;;;;;5.05;4.03;;;;;;;23.57;52.36;101140.81;5010673;28;20017;-69
2023/08/28 10:45:55;;;;;;;4.05;3.55;;;;;;;23.50;50.59;101142.31;5016552;28;20025;-69
2023/08/28 10:48:20;;;;;;;3.92;3.42;;;;;;;23.72;50.26;101136.72;5016628;28;20053;-69
2023/08/28 10:50:46;;;;;;;3.03;2.40;;;;;;;23.70;46.49;101132.47;5008065;28;20504;-68
2023/08/28 10:53:15;;;;;;;4.15;3.80;;;;;;;23.59;48.74;101131.56;5001915;28;20556;-68
2023/08/28 10:55:59;;;;;;;4.47;3.30;;;;;;;24.32;50.23;101129.38;5003604;28;20019;-68
2023/08/28 10:58:28;;;;;;;2.50;2.30;;;;;;;24.36;46.64;101125.41;5006074;28;20456;-68
2023/08/28 11:01:16;;;;;;;2.55;2.10;;;;;;;24.45;48.79;101128.25;5006772;28;20438;-70
2023/08/28 11:04:01;;;;;;;4.85;1.98;;;;;;;24.28;48.72;101119.00;5000023;28;20511;-70
2023/08/28 11:06:45;;;;;;;2.38;2.20;;;;;;;24.74;48.38;101122.78;5008658;28;20037;-70
2023/08/28 11:09:26;;;;;;;2.60;1.83;;;;;;;25.10;47.18;101123.84;5009635;28;20057;-68
2023/08/28 11:11:51;;;;;;;2.03;1.83;;;;;;;25.54;44.92;101118.59;4998387;28;20030;-67
2023/08/28 11:14:16;;;;;;;2.83;2.63;;;;;;;25.47;43.48;101112.13;5003853;28;20033;-68
2023/08/28 11:16:43;;;;;;;2.78;2.58;;;;;;;25.25;47.37;101118.78;5002746;28;20030;-68
2023/08/28 11:19:08;;;;;;;3.33;3.13;;;;;;;25.09;44.91;101117.56;5006325;28;20042;-68
2023/08/28 11:21:42;;;;;;;2.88;2.67;;;;;;;25.85;45.97;101109.16;5000452;28;20489;-68